createdAt,value
2018-10-18T00:00:35.382Z,101523.25
2018-10-18T00:03:04.443Z,101522.21
2018-10-18T00:05:33.507Z,101523.77
2018-10-18T00:08:02.664Z,101521.63
2018-10-18T00:10:31.400Z,101521.87
2018-10-18T00:13:00.012Z,101523.77
2018-10-18T00:15:28.739Z,101532.43
2018-10-18T00:17:57.560Z,101524.67
2018-10-18T00:20:26.712Z,101517.69
2018-10-18T00:22:55.394Z,101517.36
2018-10-18T00:25:24.117Z,101516.18
2018-10-18T00:27:52.806Z,101520.33
2018-10-18T00:30:21.800Z,101522.77
2018-10-18T00:32:50.652Z,101526.52
2018-10-18T00:35:19.507Z,101527.00
2018-10-18T00:37:48.399Z,101527.30
2018-10-18T00:40:17.248Z,101528.36
2018-10-18T00:42:45.990Z,101525.38
2018-10-18T00:45:14.737Z,101528.36
2018-10-18T00:47:43.499Z,101527.78
2018-10-18T00:50:19.187Z,101534.77
2018-10-18T00:52:47.793Z,101530.92
2018-10-18T00:55:16.870Z,101527.96
2018-10-18T00:57:45.827Z,101525.47
2018-10-18T01:00:14.667Z,101521.95
2018-10-18T01:02:46.302Z,101525.46
2018-10-18T01:05:15.339Z,101519.42
2018-10-18T01:07:44.252Z,101528.44
2018-10-18T01:10:13.308Z,101517.73
2018-10-18T01:12:42.101Z,101518.74
2018-10-18T01:15:11.149Z,101511.33
2018-10-18T01:17:40.767Z,101517.63
2018-10-18T01:20:09.618Z,101514.06
2018-10-18T01:22:38.419Z,101517.92
2018-10-18T01:25:07.559Z,101514.65
2018-10-18T01:27:36.411Z,101512.63
2018-10-18T01:30:05.730Z,101513.41
2018-10-18T01:32:34.346Z,101516.08
2018-10-18T01:35:03.429Z,101512.75
2018-10-18T01:37:32.062Z,101513.22
2018-10-18T01:40:01.047Z,101507.95
2018-10-18T01:42:29.866Z,101511.92
2018-10-18T01:44:58.630Z,101508.37
2018-10-18T01:47:27.745Z,101501.41
2018-10-18T01:49:56.620Z,101497.97
2018-10-18T01:52:25.737Z,101496.25
2018-10-18T01:54:54.631Z,101492.93
2018-10-18T01:57:23.535Z,101499.23
2018-10-18T01:59:52.427Z,101497.61
2018-10-18T02:02:21.316Z,101500.64
2018-10-18T02:04:50.085Z,101497.19
2018-10-18T02:07:18.807Z,101500.83
2018-10-18T02:09:47.751Z,101502.91
2018-10-18T02:12:16.623Z,101500.17
2018-10-18T02:14:45.332Z,101503.48
2018-10-18T02:17:14.344Z,101496.96
2018-10-18T02:19:43.212Z,101507.05
2018-10-18T02:22:12.075Z,101502.31
2018-10-18T02:24:40.841Z,101503.42
2018-10-18T02:27:09.584Z,101502.77
2018-10-18T02:29:38.250Z,101505.72
2018-10-18T02:32:07.230Z,101503.75
2018-10-18T02:34:36.158Z,101507.43
2018-10-18T02:37:06.327Z,101502.98
2018-10-18T02:39:35.169Z,101496.30
2018-10-18T02:42:04.563Z,101498.06
2018-10-18T02:44:33.347Z,101494.53
2018-10-18T02:47:02.159Z,101500.50
2018-10-18T02:49:30.768Z,101498.77
2018-10-18T02:51:59.531Z,101500.44
2018-10-18T02:54:28.140Z,101500.92
2018-10-18T02:56:57.270Z,101500.31
2018-10-18T02:59:26.688Z,101495.22
2018-10-18T03:01:55.485Z,101503.63
2018-10-18T03:04:24.328Z,101502.48
2018-10-18T03:06:53.094Z,101511.09
2018-10-18T03:09:22.063Z,101511.60
2018-10-18T03:11:50.888Z,101513.89
2018-10-18T03:14:19.695Z,101508.36
2018-10-18T03:16:48.540Z,101507.80
2018-10-18T03:19:17.355Z,101509.72
2018-10-18T03:21:46.279Z,101511.63
2018-10-18T03:24:15.125Z,101515.25
2018-10-18T03:26:44.514Z,101520.48
2018-10-18T03:29:13.287Z,101527.07
2018-10-18T03:31:41.946Z,101520.46
2018-10-18T03:34:10.746Z,101517.68
2018-10-18T03:36:39.650Z,101511.30
2018-10-18T03:39:10.633Z,101513.19
2018-10-18T03:41:39.488Z,101511.69
2018-10-18T03:44:08.355Z,101515.91
2018-10-18T03:46:37.196Z,101513.80
2018-10-18T03:49:06.154Z,101517.82
2018-10-18T03:51:35.303Z,101512.44
2018-10-18T03:54:04.020Z,101509.72
2018-10-18T03:56:33.068Z,101516.55
2018-10-18T03:59:01.713Z,101515.25
2018-10-18T04:04:25.863Z,101514.72
2018-10-18T04:06:54.279Z,101512.74
2018-10-18T04:09:22.762Z,101511.75
2018-10-18T04:11:51.134Z,101511.89
2018-10-18T04:14:19.515Z,101512.95
2018-10-18T04:16:47.836Z,101511.70
2018-10-18T04:19:16.359Z,101506.14
2018-10-18T04:21:44.890Z,101501.75
2018-10-18T04:24:13.571Z,101505.87
2018-10-18T04:26:41.968Z,101503.44
2018-10-18T04:29:10.269Z,101506.16
2018-10-18T04:31:38.604Z,101501.53
2018-10-18T04:34:06.923Z,101503.58
2018-10-18T04:36:35.281Z,101504.11
2018-10-18T04:39:04.406Z,101509.11
2018-10-18T04:41:33.631Z,101507.45
2018-10-18T04:44:01.981Z,101505.95
2018-10-18T04:46:30.365Z,101512.58
2018-10-18T04:48:58.751Z,101514.02
2018-10-18T04:51:27.159Z,101519.16
2018-10-18T04:53:55.436Z,101530.30
2018-10-18T04:56:23.915Z,101529.33
2018-10-18T04:58:52.350Z,101518.94
2018-10-18T05:01:21.058Z,101521.53
2018-10-18T05:03:49.231Z,101523.86
2018-10-18T05:06:17.730Z,101526.00
2018-10-18T05:08:46.036Z,101528.34
2018-10-18T05:11:14.412Z,101533.17
2018-10-18T05:13:42.703Z,101533.55
2018-10-18T05:16:11.144Z,101540.91
2018-10-18T05:18:39.447Z,101533.00
2018-10-18T05:21:07.995Z,101537.87
2018-10-18T05:23:36.381Z,101536.73
2018-10-18T05:26:06.850Z,101538.11
2018-10-18T05:28:35.460Z,101542.73
2018-10-18T05:31:03.849Z,101545.83
2018-10-18T05:33:32.314Z,101553.77
2018-10-18T05:36:01.109Z,101558.55
2018-10-18T05:38:29.451Z,101561.20
2018-10-18T05:40:58.554Z,101564.57
2018-10-18T05:43:26.930Z,101566.12
2018-10-18T05:45:56.021Z,101570.20
2018-10-18T05:48:24.447Z,101574.03
2018-10-18T05:50:52.823Z,101576.84
2018-10-18T05:53:21.235Z,101586.37
2018-10-18T05:55:50.068Z,101590.53
2018-10-18T05:58:18.381Z,101582.71
2018-10-18T06:00:47.072Z,101584.66
2018-10-18T06:05:52.835Z,101596.00
2018-10-18T06:08:21.114Z,101590.02
2018-10-18T06:11:00.719Z,101600.56
2018-10-18T06:13:29.052Z,101604.09
2018-10-18T06:15:57.923Z,101605.40
2018-10-18T06:18:26.235Z,101604.09
2018-10-18T06:20:54.769Z,101604.34
2018-10-18T06:23:23.220Z,101603.22
2018-10-18T06:25:51.703Z,101599.80
2018-10-18T06:28:20.306Z,101603.59
2018-10-18T06:30:48.661Z,101600.78
2018-10-18T06:33:17.172Z,101604.60
2018-10-18T06:35:46.212Z,101602.11
2018-10-18T06:38:14.676Z,101598.11
2018-10-18T06:40:43.061Z,101601.44
2018-10-18T06:43:11.698Z,101608.56
2018-10-18T06:45:40.007Z,101606.66
2018-10-18T06:48:08.433Z,101603.77
2018-10-18T06:50:36.739Z,101615.90
2018-10-18T06:53:05.202Z,101610.14
2018-10-18T06:55:33.534Z,101607.55
2018-10-18T06:58:01.858Z,101598.23
2018-10-18T07:00:31.250Z,101593.69
2018-10-18T07:02:59.608Z,101599.58
2018-10-18T07:05:28.297Z,101608.61
2018-10-18T07:07:57.120Z,101598.04
2018-10-18T07:10:25.930Z,101609.16
2018-10-18T07:12:54.542Z,101614.08
2018-10-18T07:15:23.263Z,101615.12
2018-10-18T07:17:51.762Z,101617.06
2018-10-18T07:20:20.276Z,101624.34
2018-10-18T07:22:49.422Z,101623.67
2018-10-18T07:25:18.055Z,101623.70
2018-10-18T07:27:46.508Z,101627.83
2018-10-18T07:30:15.669Z,101618.84
2018-10-18T07:32:43.997Z,101622.12
2018-10-18T07:35:13.471Z,101621.37
2018-10-18T07:37:41.658Z,101628.09
2018-10-18T07:40:13.292Z,101626.37
2018-10-18T07:42:42.008Z,101635.30
2018-10-18T07:45:11.263Z,101623.26
2018-10-18T07:47:39.747Z,101633.28
2018-10-18T07:50:08.117Z,101636.91
2018-10-18T07:52:36.710Z,101638.81
2018-10-18T07:55:05.804Z,101643.86
2018-10-18T07:57:34.220Z,101644.40
2018-10-18T08:00:02.653Z,101636.75
2018-10-18T08:02:30.983Z,101634.02
2018-10-18T08:04:59.478Z,101643.90
2018-10-18T08:07:28.370Z,101641.70
2018-10-18T08:09:57.297Z,101649.12
2018-10-18T08:12:25.763Z,101652.11
2018-10-18T08:14:54.101Z,101648.27
2018-10-18T08:17:22.537Z,101644.15
2018-10-18T08:19:51.069Z,101646.05
2018-10-18T08:22:19.469Z,101648.48
2018-10-18T08:24:47.857Z,101641.30
2018-10-18T08:27:16.361Z,101646.49
2018-10-18T08:29:44.671Z,101638.99
2018-10-18T08:32:13.007Z,101636.84
2018-10-18T08:34:41.330Z,101638.70
2018-10-18T08:37:09.918Z,101635.27
2018-10-18T08:39:38.289Z,101627.84
2018-10-18T08:42:06.870Z,101631.59
2018-10-18T08:44:35.289Z,101633.56
2018-10-18T08:47:03.687Z,101639.83
2018-10-18T08:49:32.043Z,101638.72
2018-10-18T08:52:00.377Z,101644.42
2018-10-18T08:54:28.802Z,101642.11
2018-10-18T08:56:57.184Z,101640.21
2018-10-18T08:59:25.988Z,101638.20
2018-10-18T09:01:54.360Z,101635.22
2018-10-18T09:04:22.841Z,101635.17
2018-10-18T09:06:51.215Z,101638.52
2018-10-18T09:09:19.671Z,101640.13
2018-10-18T09:11:48.415Z,101635.84
2018-10-18T09:14:16.737Z,101643.23
2018-10-18T09:16:45.243Z,101642.40
2018-10-18T09:19:14.180Z,101637.37
2018-10-18T09:21:42.660Z,101643.45
2018-10-18T09:24:11.482Z,101646.47
2018-10-18T09:26:40.052Z,101646.22
2018-10-18T09:29:08.472Z,101640.20
2018-10-18T09:31:36.951Z,101638.81
2018-10-18T09:34:05.577Z,101641.64
2018-10-18T09:36:33.951Z,101640.73
2018-10-18T09:39:02.588Z,101643.82
2018-10-18T09:41:31.069Z,101649.08
2018-10-18T09:44:03.240Z,101645.05
2018-10-18T09:46:32.477Z,101641.22
2018-10-18T09:49:01.323Z,101640.42
2018-10-18T09:51:29.747Z,101647.48
2018-10-18T09:53:58.440Z,101648.92
2018-10-18T09:56:26.868Z,101650.66
2018-10-18T09:58:55.250Z,101653.33
2018-10-18T10:01:30.433Z,101656.66
2018-10-18T10:04:05.401Z,101654.63
2018-10-18T10:06:33.781Z,101660.26
2018-10-18T10:09:03.199Z,101650.80
2018-10-18T10:11:32.424Z,101660.49
2018-10-18T10:14:00.877Z,101659.29
2018-10-18T10:16:29.295Z,101665.70
2018-10-18T10:18:57.840Z,101660.67
2018-10-18T10:21:26.224Z,101669.73
2018-10-18T10:23:54.608Z,101666.67
2018-10-18T10:26:23.288Z,101670.38
2018-10-18T10:28:51.602Z,101672.96
2018-10-18T10:31:20.232Z,101677.09
2018-10-18T10:33:48.450Z,101676.89
2018-10-18T10:36:16.838Z,101679.86
2018-10-18T10:38:45.168Z,101681.23
2018-10-18T10:41:13.595Z,101678.38
2018-10-18T10:43:41.845Z,101686.41
2018-10-18T10:46:10.224Z,101688.88
2018-10-18T10:48:38.819Z,101689.82
2018-10-18T10:51:07.229Z,101698.22
2018-10-18T10:53:35.535Z,101696.53
2018-10-18T10:56:03.942Z,101692.59
2018-10-18T10:58:32.279Z,101699.06
2018-10-18T11:01:08.795Z,101698.63
2018-10-18T11:03:37.827Z,101703.05
2018-10-18T11:06:06.228Z,101709.71
2018-10-18T11:08:35.308Z,101708.58
2018-10-18T11:11:03.872Z,101706.66
2018-10-18T11:13:32.564Z,101696.35
2018-10-18T11:16:02.681Z,101701.16
2018-10-18T11:18:32.190Z,101703.46
2018-10-18T11:21:01.108Z,101706.99
2018-10-18T11:23:29.519Z,101705.45
2018-10-18T11:25:58.029Z,101706.31
2018-10-18T11:28:26.385Z,101701.40
2018-10-18T11:30:54.790Z,101696.11
2018-10-18T11:33:24.023Z,101699.27
2018-10-18T11:35:52.405Z,101700.09
2018-10-18T11:38:21.116Z,101702.73
2018-10-18T11:40:49.660Z,101697.23
2018-10-18T11:43:18.040Z,101701.53
2018-10-18T11:45:46.427Z,101695.27
2018-10-18T11:48:15.296Z,101700.52
2018-10-18T11:50:44.172Z,101692.84
2018-10-18T11:53:12.502Z,101689.09
2018-10-18T11:55:40.995Z,101689.44
2018-10-18T11:58:10.592Z,101685.19
2018-10-18T12:00:38.979Z,101676.75
2018-10-18T12:03:07.331Z,101678.23
2018-10-18T12:05:35.812Z,101675.59
2018-10-18T12:08:04.488Z,101677.78
2018-10-18T12:10:33.006Z,101669.38
2018-10-18T12:13:01.308Z,101669.95
2018-10-18T12:15:29.769Z,101671.58
2018-10-18T12:17:58.071Z,101673.39
2018-10-18T12:20:26.422Z,101682.81
2018-10-18T12:22:54.871Z,101685.69
2018-10-18T12:25:23.479Z,101681.11
2018-10-18T12:27:51.935Z,101682.71
2018-10-18T12:30:20.471Z,101676.87
2018-10-18T12:32:49.128Z,101684.47
2018-10-18T12:35:17.627Z,101683.42
2018-10-18T12:37:45.820Z,101687.02
2018-10-18T12:40:14.256Z,101690.61
2018-10-18T12:42:43.612Z,101692.88
2018-10-18T12:45:12.731Z,101693.08
2018-10-18T12:47:41.823Z,101695.07
2018-10-18T12:50:10.241Z,101693.31
2018-10-18T12:52:38.803Z,101693.02
2018-10-18T12:55:07.352Z,101699.05
2018-10-18T12:57:35.676Z,101693.30
2018-10-18T13:00:04.055Z,101698.00
2018-10-18T13:02:35.379Z,101700.91
2018-10-18T13:05:03.712Z,101695.38
2018-10-18T13:07:32.094Z,101693.61
2018-10-18T13:10:00.423Z,101693.06
2018-10-18T13:12:28.826Z,101697.50
2018-10-18T13:14:57.098Z,101695.56
2018-10-18T13:17:25.402Z,101694.63
2018-10-18T13:19:54.391Z,101701.84
2018-10-18T13:22:22.842Z,101701.19
2018-10-18T13:24:51.127Z,101694.63
2018-10-18T13:27:19.529Z,101692.35
2018-10-18T13:29:47.829Z,101699.86
2018-10-18T13:32:16.283Z,101706.72
2018-10-18T13:34:44.654Z,101709.19
2018-10-18T13:37:13.008Z,101697.75
2018-10-18T13:39:41.423Z,101697.26
2018-10-18T13:42:09.793Z,101705.88
2018-10-18T13:44:38.105Z,101699.03
2018-10-18T13:47:09.548Z,101700.02
2018-10-18T13:49:37.890Z,101701.05
2018-10-18T13:52:06.267Z,101702.06
2018-10-18T13:54:34.927Z,101698.75
2018-10-18T13:57:03.254Z,101697.68
2018-10-18T13:59:42.913Z,101704.49
2018-10-18T14:02:11.417Z,101705.34
2018-10-18T14:04:42.483Z,101701.26
2018-10-18T14:07:11.128Z,101700.13
2018-10-18T14:09:39.695Z,101704.02
2018-10-18T14:12:08.122Z,101697.55
2018-10-18T14:14:36.430Z,101705.13
2018-10-18T14:17:04.845Z,101707.66
2018-10-18T14:19:33.130Z,101704.60
2018-10-18T14:22:01.575Z,101711.84
2018-10-18T14:24:30.013Z,101703.84
2018-10-18T14:26:58.413Z,101702.45
2018-10-18T14:29:26.835Z,101705.77
2018-10-18T14:31:55.321Z,101712.88
2018-10-18T14:34:24.897Z,101702.79
2018-10-18T14:36:53.315Z,101709.46
2018-10-18T14:39:21.739Z,101709.73
2018-10-18T14:41:50.584Z,101707.14
2018-10-18T14:44:19.002Z,101708.31
2018-10-18T14:46:47.414Z,101705.89
2018-10-18T14:49:16.011Z,101710.30
2018-10-18T14:51:44.363Z,101704.78
2018-10-18T14:54:12.876Z,101700.97
2018-10-18T14:56:41.249Z,101701.13
2018-10-18T14:59:09.624Z,101702.45
2018-10-18T15:01:37.975Z,101705.34
2018-10-18T15:04:06.876Z,101707.27
2018-10-18T15:06:35.509Z,101709.80
2018-10-18T15:09:03.923Z,101711.51
2018-10-18T15:11:32.381Z,101712.84
2018-10-18T15:14:00.749Z,101717.25
2018-10-18T15:16:29.470Z,101709.38
2018-10-18T15:18:57.843Z,101716.53
2018-10-18T15:21:26.871Z,101719.86
2018-10-18T15:23:55.299Z,101722.66
2018-10-18T15:26:24.381Z,101715.76
2018-10-18T15:28:52.884Z,101712.45
2018-10-18T15:31:21.388Z,101720.45
2018-10-18T15:33:50.693Z,101715.48
2018-10-18T15:36:19.181Z,101707.16
2018-10-18T15:38:47.907Z,101708.31
2018-10-18T15:41:16.381Z,101708.31
2018-10-18T15:43:44.686Z,101715.81
2018-10-18T15:46:13.190Z,101719.41
2018-10-18T15:48:41.668Z,101721.55
2018-10-18T15:51:10.062Z,101720.52
2018-10-18T15:53:38.597Z,101722.76
2018-10-18T15:56:06.993Z,101722.16
2018-10-18T15:58:35.618Z,101722.98
2018-10-18T16:01:04.492Z,101722.20
2018-10-18T16:03:32.994Z,101727.77
2018-10-18T16:06:03.061Z,101737.06
2018-10-18T16:08:31.427Z,101727.61
2018-10-18T16:11:00.068Z,101729.55
2018-10-18T16:13:36.967Z,101731.44
2018-10-18T16:16:06.167Z,101730.94
2018-10-18T16:18:34.646Z,101738.87
2018-10-18T16:21:03.056Z,101745.92
2018-10-18T16:23:31.467Z,101747.30
2018-10-18T16:25:59.905Z,101749.83
2018-10-18T16:28:29.246Z,101744.87
2018-10-18T16:30:57.591Z,101752.84
2018-10-18T16:33:26.124Z,101754.11
2018-10-18T16:35:54.459Z,101759.79
2018-10-18T16:38:22.813Z,101761.78
2018-10-18T16:40:53.474Z,101756.31
2018-10-18T16:43:22.446Z,101760.98
2018-10-18T16:45:50.774Z,101762.97
2018-10-18T16:48:19.142Z,101769.78
2018-10-18T16:50:49.093Z,101774.42
2018-10-18T16:53:17.422Z,101776.07
2018-10-18T16:55:46.396Z,101773.59
2018-10-18T16:58:14.851Z,101782.97
2018-10-18T17:00:43.191Z,101786.28
2018-10-18T17:03:11.975Z,101789.31
2018-10-18T17:05:40.337Z,101789.91
2018-10-18T17:08:08.973Z,101792.34
2018-10-18T17:10:37.347Z,101792.44
2018-10-18T17:13:06.318Z,101792.86
2018-10-18T17:15:35.296Z,101793.23
2018-10-18T17:18:04.075Z,101798.78
2018-10-18T17:20:32.515Z,101802.05
2018-10-18T17:23:00.938Z,101803.25
2018-10-18T17:25:29.504Z,101809.09
2018-10-18T17:27:58.116Z,101807.95
2018-10-18T17:30:26.615Z,101810.73
2018-10-18T17:32:54.974Z,101812.99
2018-10-18T17:35:23.321Z,101810.51
2018-10-18T17:37:52.240Z,101819.02
2018-10-18T17:40:21.006Z,101816.84
2018-10-18T17:42:49.775Z,101829.02
2018-10-18T17:45:18.749Z,101835.09
2018-10-18T17:47:48.426Z,101829.38
2018-10-18T17:50:16.880Z,101834.41
2018-10-18T17:52:45.188Z,101831.62
2018-10-18T17:55:13.685Z,101836.06
2018-10-18T17:57:42.104Z,101830.55
2018-10-18T18:00:12.163Z,101832.72
2018-10-18T18:02:42.724Z,101835.44
2018-10-18T18:05:21.400Z,101835.44
2018-10-18T18:07:49.806Z,101838.75
2018-10-18T18:10:20.377Z,101848.67
2018-10-18T18:12:48.711Z,101851.70
2018-10-18T18:15:17.072Z,101850.64
2018-10-18T18:17:45.469Z,101855.57
2018-10-18T18:20:15.118Z,101854.19
2018-10-18T18:22:46.623Z,101858.09
2018-10-18T18:25:15.972Z,101854.47
2018-10-18T18:27:44.455Z,101861.39
2018-10-18T18:30:14.228Z,101865.77
2018-10-18T18:32:42.903Z,101870.49
2018-10-18T18:35:11.357Z,101866.05
2018-10-18T18:37:39.690Z,101875.80
2018-10-18T18:40:08.915Z,101877.97
2018-10-18T18:42:37.639Z,101885.10
2018-10-18T18:45:11.408Z,101881.27
2018-10-18T18:47:39.691Z,101890.61
2018-10-18T18:50:08.589Z,101892.23
2018-10-18T18:52:36.876Z,101893.41
2018-10-18T18:55:06.272Z,101892.60
2018-10-18T18:57:36.899Z,101900.30
2018-10-18T19:00:06.959Z,101897.53
2018-10-18T19:02:35.862Z,101900.90
2018-10-18T19:05:04.291Z,101895.64
2018-10-18T19:07:33.403Z,101903.93
2018-10-18T19:10:01.703Z,101900.90
2018-10-18T19:12:30.305Z,101898.97
2018-10-18T19:14:58.633Z,101910.55
2018-10-18T19:17:27.031Z,101913.58
2018-10-18T19:19:55.575Z,101913.06
2018-10-18T19:22:23.994Z,101910.07
2018-10-18T19:24:52.787Z,101921.34
2018-10-18T19:27:22.603Z,101911.68
2018-10-18T19:29:51.831Z,101919.92
2018-10-18T19:32:20.235Z,101924.11
2018-10-18T19:34:49.070Z,101912.80
2018-10-18T19:37:17.631Z,101917.26
2018-10-18T19:39:45.981Z,101926.30
2018-10-18T19:42:14.307Z,101925.22
2018-10-18T19:44:42.594Z,101931.27
2018-10-18T19:47:10.911Z,101933.49
2018-10-18T19:49:39.205Z,101939.56
2018-10-18T19:52:07.734Z,101937.33
2018-10-18T19:54:36.178Z,101939.59
2018-10-18T19:57:04.635Z,101937.09
2018-10-18T19:59:32.935Z,101945.37
2018-10-18T20:02:01.310Z,101939.87
2018-10-18T20:04:30.359Z,101941.53
2018-10-18T20:06:58.788Z,101940.69
2018-10-18T20:09:27.115Z,101942.08
2018-10-18T20:11:55.570Z,101948.44
2018-10-18T20:14:24.055Z,101948.70
2018-10-18T20:16:52.535Z,101956.12
2018-10-18T20:19:27.634Z,101959.43
2018-10-18T20:21:56.023Z,101963.58
2018-10-18T20:24:24.496Z,101945.42
2018-10-18T20:26:53.165Z,101963.84
2018-10-18T20:29:22.047Z,101955.61
2018-10-18T20:31:50.631Z,101960.27
2018-10-18T20:34:18.943Z,101953.11
2018-10-18T20:36:47.898Z,101949.50
2018-10-18T20:39:16.248Z,101955.05
2018-10-18T20:41:44.995Z,101950.37
2018-10-18T20:44:13.371Z,101954.79
2018-10-18T20:46:41.858Z,101957.79
2018-10-18T20:49:10.564Z,101958.07
2018-10-18T20:51:42.390Z,101957.25
2018-10-18T20:54:11.403Z,101967.16
2018-10-18T20:56:39.956Z,101968.53
2018-10-18T20:59:08.411Z,101966.63
2018-10-18T21:01:36.724Z,101971.01
2018-10-18T21:04:08.386Z,101971.03
2018-10-18T21:06:37.037Z,101969.91
2018-10-18T21:09:07.714Z,101967.70
2018-10-18T21:11:36.121Z,101968.00
2018-10-18T21:14:04.773Z,101967.70
2018-10-18T21:16:33.471Z,101971.55
2018-10-18T21:19:01.787Z,101973.20
2018-10-18T21:21:30.286Z,101976.25
2018-10-18T21:23:58.767Z,101981.23
2018-10-18T21:26:27.124Z,101981.17
2018-10-18T21:28:55.646Z,101985.89
2018-10-18T21:31:24.212Z,101988.91
2018-10-18T21:33:52.935Z,101988.66
2018-10-18T21:36:21.248Z,101989.76
2018-10-18T21:38:50.241Z,101994.17
2018-10-18T21:41:18.575Z,101982.61
2018-10-18T21:43:46.878Z,101991.43
2018-10-18T21:46:15.238Z,101993.08
2018-10-18T21:48:44.129Z,101986.75
2018-10-18T21:51:12.633Z,101988.41
2018-10-18T21:53:40.818Z,101991.98
2018-10-18T21:56:09.248Z,101993.92
2018-10-18T21:58:37.527Z,101997.23
2018-10-18T22:01:06.055Z,101999.41
2018-10-18T22:03:35.564Z,102001.05
2018-10-18T22:06:03.880Z,101991.98
2018-10-18T22:08:32.184Z,101995.84
2018-10-18T22:11:01.002Z,101993.91
2018-10-18T22:13:29.357Z,101999.69
2018-10-18T22:15:57.670Z,101997.77
2018-10-18T22:18:25.954Z,102001.34
2018-10-18T22:20:54.481Z,102001.91
2018-10-18T22:23:23.461Z,102006.84
2018-10-18T22:25:51.806Z,102004.91
2018-10-18T22:28:21.210Z,102011.80
2018-10-18T22:30:49.813Z,102007.39
2018-10-18T22:33:20.709Z,102002.44
2018-10-18T22:35:51.644Z,102003.28
2018-10-18T22:38:21.197Z,102001.06
2018-10-18T22:40:49.580Z,102004.91
2018-10-18T22:43:18.147Z,102009.59
2018-10-18T22:45:51.926Z,102008.48
2018-10-18T22:48:20.454Z,102006.82
2018-10-18T22:50:50.599Z,102007.36
2018-10-18T22:53:20.701Z,102009.59
2018-10-18T22:55:51.745Z,102007.64
2018-10-18T22:58:21.664Z,102011.22
2018-10-18T23:00:54.285Z,102008.73
2018-10-18T23:03:24.827Z,102005.16
2018-10-18T23:05:55.458Z,102009.57
2018-10-18T23:08:25.238Z,102005.42
2018-10-18T23:10:54.101Z,102009.56
2018-10-18T23:13:22.437Z,102012.31
2018-10-18T23:15:51.140Z,102009.00
2018-10-18T23:18:19.471Z,102015.88
2018-10-18T23:20:48.044Z,102016.98
2018-10-18T23:23:16.521Z,102017.23
2018-10-18T23:25:45.024Z,102015.85
2018-10-18T23:28:13.934Z,102014.75
2018-10-18T23:30:43.198Z,102018.84
2018-10-18T23:33:11.577Z,102016.64
2018-10-18T23:35:40.270Z,102017.72
2018-10-18T23:38:08.563Z,102016.34
2018-10-18T23:40:36.875Z,102016.02
2018-10-18T23:43:05.387Z,102013.50
2018-10-18T23:45:33.746Z,102015.16
2018-10-18T23:48:02.058Z,102018.15
2018-10-18T23:50:30.374Z,102013.20
2018-10-18T23:52:58.680Z,102010.69
2018-10-18T23:55:27.150Z,102009.30
2018-10-18T23:57:55.431Z,102018.31
